Página principal
METAR-TAF:

METAR-TAF

Aeroportos :

Nova Orleães, Luisiana, Estados Unidos

Aeroporto Internacional de Nova Orleães Louis Armstrong

latitude: 29-59-34N, longitude: 090-15-03W, altura: 1 m

Observação actual do tempo

O boletim foi feito há 1 hora e 9 minutos, às 11:53 UTC
Vento calmo
Temperatura -1°C
Humidade 80%
Pressão 1029 hPa
Visibilidade: 16.1 km
Poucas nuvensa uma altura de 25000 ft

METAR: KMSY 191153Z 00000KT 10SM FEW250 M01/M04 A3038 RMK AO2 SLP290 T10061039 10000 21022 55001

Hora: 07:02 (13:02 UTC)

Previsão

O boletim foi feito há 1 hora e 31 minutos, às 11:31 UTC
Previsão válida de 19 às 12 UTC a 20 às 18 UTC
Vento 5 kt de este
Visibilidade: 10 km
Nuvens fragmentadasa uma altura de 20000 ft
A partir de 19 às 2200 UTC
Vento 6 kt de este
Visibilidade: 10 km
Nuvens fragmentadasa uma altura de 8000 ft

TAF: KMSY 191131Z 1912/2018 08005KT P6SM BKN200 FM192200 10006KT P6SM BKN080

Observações e previsões do tempo de mais de 4000 aeroportos (mensagens METAR e TAF).

As estações disponíveis são os pontos amarelos e vermelhos sobre o mapa.

Mova o rato sobre o mapa para ver o nome da estação.

Depois clique no ponto para visualizar as observações e previsões meteorológicas.

Para alterar o mapa : clique nos botões verdes com uma cruz preta para aumentar o zoom; no botão verde com uma pitada de zoom; ou nas setas verdes para mapas adjacentes.


METAR-TAF: